createdAt,value
2018-09-26T00:00:13.210Z,7.03
2018-09-26T00:01:13.294Z,7.02
2018-09-26T00:02:13.491Z,7.03
2018-09-26T00:03:13.496Z,7.00
2018-09-26T00:04:13.511Z,7.00
2018-09-26T00:05:13.562Z,6.99
2018-09-26T00:06:13.630Z,6.96
2018-09-26T00:07:13.783Z,6.97
2018-09-26T00:08:13.862Z,6.96
2018-09-26T00:09:13.976Z,6.99
2018-09-26T00:10:35.086Z,6.99
2018-09-26T00:11:35.081Z,6.95
2018-09-26T00:12:35.279Z,6.95
2018-09-26T00:13:35.384Z,6.95
2018-09-26T00:14:35.623Z,6.92
2018-09-26T00:15:35.714Z,6.89
2018-09-26T00:16:56.524Z,6.88
2018-09-26T00:17:57.577Z,6.88
2018-09-26T00:18:56.549Z,6.87
2018-09-26T00:19:56.954Z,6.87
2018-09-26T00:20:57.011Z,6.87
2018-09-26T00:21:57.275Z,6.87
2018-09-26T00:22:57.441Z,6.89
2018-09-26T00:24:18.776Z,6.89
2018-09-26T00:25:18.816Z,6.95
2018-09-26T00:26:18.967Z,6.96
2018-09-26T00:27:19.249Z,6.99
2018-09-26T00:28:19.477Z,7.00
2018-09-26T00:30:00.165Z,6.99
2018-09-26T00:31:00.193Z,6.99
2018-09-26T00:32:00.367Z,6.99
2018-09-26T00:33:00.666Z,7.02
2018-09-26T00:34:00.574Z,7.03
2018-09-26T00:35:00.742Z,7.03
2018-09-26T00:36:21.994Z,7.07
2018-09-26T00:37:22.069Z,7.05
2018-09-26T00:38:22.174Z,7.03
2018-09-26T00:39:22.126Z,7.03
2018-09-26T00:40:22.241Z,7.03
2018-09-26T00:41:22.480Z,7.02
2018-09-26T00:42:22.420Z,7.02
2018-09-26T00:43:22.366Z,7.03
2018-09-26T00:44:23.487Z,7.17
2018-09-26T00:45:22.397Z,7.29
2018-09-26T00:46:22.609Z,7.36
2018-09-26T00:47:21.770Z,7.47
2018-09-26T00:48:22.091Z,7.54
2018-09-26T00:49:22.291Z,7.61
2018-09-26T00:50:22.512Z,7.77
2018-09-26T00:51:23.181Z,7.80
2018-09-26T00:52:22.328Z,7.85
2018-09-26T00:53:22.103Z,7.85
2018-09-26T00:54:22.211Z,7.90
2018-09-26T00:55:22.254Z,7.95
2018-09-26T00:56:22.338Z,8.01
2018-09-26T00:57:22.609Z,8.01
2018-09-26T00:58:22.739Z,8.03
2018-09-26T00:59:21.842Z,8.03
2018-09-26T01:00:21.924Z,8.01
2018-09-26T01:01:42.814Z,8.00
2018-09-26T01:02:43.867Z,8.00
2018-09-26T01:04:03.774Z,8.05
2018-09-26T01:05:04.913Z,8.09
2018-09-26T01:06:04.086Z,8.10
2018-09-26T01:07:04.405Z,8.10
2018-09-26T01:08:04.594Z,8.10
2018-09-26T01:09:03.759Z,8.10
2018-09-26T01:10:03.915Z,8.18
2018-09-26T01:11:04.064Z,8.23
2018-09-26T01:12:04.508Z,8.26
2018-09-26T01:13:04.550Z,8.23
2018-09-26T01:14:04.574Z,8.23
2018-09-26T01:15:04.828Z,8.24
2018-09-26T01:16:04.017Z,8.24
2018-09-26T01:17:04.228Z,8.26
2018-09-26T01:18:04.366Z,8.30
2018-09-26T01:19:04.245Z,8.30
2018-09-26T01:20:04.490Z,8.31
2018-09-26T01:21:25.611Z,8.33
2018-09-26T01:22:46.984Z,8.34
2018-09-26T01:23:47.269Z,8.33
2018-09-26T01:24:47.549Z,8.31
2018-09-26T01:25:47.696Z,8.33
2018-09-26T01:26:46.877Z,8.33
2018-09-26T01:27:46.964Z,8.33
2018-09-26T01:28:47.286Z,8.33
2018-09-26T01:29:47.221Z,8.33
2018-09-26T01:30:47.418Z,8.34
2018-09-26T01:31:48.522Z,8.38
2018-09-26T01:32:47.743Z,8.42
2018-09-26T01:33:46.880Z,8.41
2018-09-26T01:35:07.770Z,8.41
2018-09-26T01:36:07.746Z,8.42
2018-09-26T01:37:28.807Z,8.41
2018-09-26T01:38:28.830Z,8.38
2018-09-26T01:39:49.635Z,8.37
2018-09-26T01:40:49.828Z,8.36
2018-09-26T01:41:49.737Z,8.36
2018-09-26T01:42:49.815Z,8.36
2018-09-26T01:43:49.965Z,8.34
2018-09-26T01:44:50.268Z,8.36
2018-09-26T01:45:50.195Z,8.34
2018-09-26T01:46:50.078Z,8.33
2018-09-26T01:47:50.347Z,8.31
2018-09-26T01:48:49.645Z,8.28
2018-09-26T01:50:10.710Z,8.23
2018-09-26T01:51:10.994Z,8.19
2018-09-26T01:52:11.044Z,8.19
2018-09-26T01:53:11.346Z,8.16
2018-09-26T01:54:10.724Z,8.16
2018-09-26T01:55:32.496Z,8.15
2018-09-26T01:56:32.714Z,8.12
2018-09-26T01:57:32.902Z,8.09
2018-09-26T01:58:33.221Z,8.06
2018-09-26T01:59:33.283Z,8.06
2018-09-26T02:00:33.282Z,8.01
2018-09-26T02:01:33.351Z,7.98
2018-09-26T02:02:33.512Z,7.98
2018-09-26T02:03:32.423Z,7.95
2018-09-26T02:04:54.364Z,7.91
2018-09-26T02:05:55.570Z,7.88
2018-09-26T02:07:15.340Z,7.83
2018-09-26T02:08:16.581Z,7.83
2018-09-26T02:09:15.774Z,7.82
2018-09-26T02:10:15.875Z,7.79
2018-09-26T02:11:16.083Z,7.79
2018-09-26T02:12:37.131Z,7.77
2018-09-26T02:14:55.064Z,7.75
2018-09-26T02:16:13.722Z,7.72
2018-09-26T02:17:14.529Z,7.70
2018-09-26T02:18:18.579Z,7.70
2018-09-26T02:19:17.376Z,7.72
2018-09-26T02:20:14.218Z,7.73
2018-09-26T02:21:15.429Z,7.77
2018-09-26T02:22:14.129Z,7.77
2018-09-26T02:23:13.028Z,7.77
2018-09-26T02:24:13.172Z,7.79
2018-09-26T02:25:33.982Z,7.76
2018-09-26T02:26:30.902Z,7.75
2018-09-26T02:27:30.943Z,7.70
2018-09-26T02:28:30.936Z,7.70
2018-09-26T02:29:51.641Z,7.63
2018-09-26T02:31:20.379Z,7.63
2018-09-26T02:32:20.551Z,7.63
2018-09-26T02:33:41.911Z,7.67
2018-09-26T02:34:41.999Z,7.69
2018-09-26T02:35:42.035Z,7.67
2018-09-26T02:36:41.977Z,7.67
2018-09-26T02:37:41.965Z,7.66
2018-09-26T02:38:42.101Z,7.66
2018-09-26T02:39:42.477Z,7.63
2018-09-26T02:40:42.448Z,7.61
2018-09-26T02:41:42.521Z,7.58
2018-09-26T02:42:42.592Z,7.56
2018-09-26T02:43:42.682Z,7.57
2018-09-26T02:45:02.442Z,7.60
2018-09-26T02:46:03.595Z,7.61
2018-09-26T02:47:02.575Z,7.61
2018-09-26T02:48:02.633Z,7.61
2018-09-26T02:49:02.903Z,7.63
2018-09-26T02:50:24.625Z,7.63
2018-09-26T02:51:24.895Z,7.61
2018-09-26T02:52:23.953Z,7.58
2018-09-26T02:53:24.352Z,7.60
2018-09-26T02:54:24.468Z,7.57
2018-09-26T02:55:24.448Z,7.53
2018-09-26T02:56:24.498Z,7.53
2018-09-26T02:57:24.727Z,7.53
2018-09-26T02:58:29.332Z,7.56
2018-09-26T02:59:28.000Z,7.56
2018-09-26T03:00:24.126Z,7.61
2018-09-26T03:01:24.227Z,7.67
2018-09-26T03:02:24.456Z,7.67
2018-09-26T03:03:24.640Z,7.72
2018-09-26T03:04:25.865Z,7.75
2018-09-26T03:05:24.078Z,7.73
2018-09-26T03:06:24.301Z,7.72
2018-09-26T03:07:24.507Z,7.69
2018-09-26T03:08:24.914Z,7.69
2018-09-26T03:09:24.035Z,7.67
2018-09-26T03:10:24.151Z,7.72
2018-09-26T03:11:28.323Z,7.72
2018-09-26T03:12:24.460Z,7.72
2018-09-26T03:13:45.530Z,7.70
2018-09-26T03:14:45.790Z,7.73
2018-09-26T03:15:45.815Z,7.77
2018-09-26T03:16:45.786Z,7.73
2018-09-26T03:17:45.818Z,7.75
2018-09-26T03:18:46.318Z,7.77
2018-09-26T03:19:46.221Z,7.79
2018-09-26T03:20:46.352Z,7.77
2018-09-26T03:21:45.420Z,7.79
2018-09-26T03:22:45.830Z,7.76
2018-09-26T03:23:45.731Z,7.76
2018-09-26T03:24:45.936Z,7.76
2018-09-26T03:25:46.015Z,7.72
2018-09-26T03:26:46.341Z,7.73
2018-09-26T03:27:46.467Z,7.72
2018-09-26T03:28:45.668Z,7.75
2018-09-26T03:29:45.840Z,7.75
2018-09-26T03:30:46.006Z,7.75
2018-09-26T03:31:46.409Z,7.77
2018-09-26T03:32:45.581Z,7.75
2018-09-26T03:33:45.727Z,7.75
2018-09-26T03:35:06.921Z,7.76
2018-09-26T03:36:06.867Z,7.76
2018-09-26T03:37:07.289Z,7.76
2018-09-26T03:38:07.490Z,7.72
2018-09-26T03:39:07.294Z,7.70
2018-09-26T03:40:07.195Z,7.67
2018-09-26T03:41:07.368Z,7.61
2018-09-26T03:42:07.461Z,7.58
2018-09-26T03:43:07.680Z,7.57
2018-09-26T03:44:06.738Z,7.56
2018-09-26T03:45:48.383Z,7.51
2018-09-26T03:47:31.419Z,7.48
2018-09-26T03:48:31.712Z,7.48
2018-09-26T03:50:01.362Z,7.43
2018-09-26T03:51:01.485Z,7.43
2018-09-26T03:52:01.357Z,7.42
2018-09-26T03:53:01.247Z,7.43
2018-09-26T03:54:01.325Z,7.42
2018-09-26T03:55:01.419Z,7.42
2018-09-26T03:56:01.512Z,7.40
2018-09-26T03:57:01.669Z,7.43
2018-09-26T03:58:00.991Z,7.43
2018-09-26T03:59:01.139Z,7.45
2018-09-26T04:00:01.775Z,7.45
2018-09-26T04:01:22.018Z,7.43
2018-09-26T04:02:22.176Z,7.39
2018-09-26T04:03:22.263Z,7.38
2018-09-26T04:04:22.533Z,7.39
2018-09-26T04:05:22.720Z,7.36
2018-09-26T04:06:22.844Z,7.33
2018-09-26T04:07:23.074Z,7.33
2018-09-26T04:08:22.315Z,7.35
2018-09-26T04:09:22.525Z,7.32
2018-09-26T04:10:43.571Z,7.35
2018-09-26T04:11:43.617Z,7.35
2018-09-26T04:12:43.954Z,7.35
2018-09-26T04:13:44.355Z,7.33
2018-09-26T04:14:44.459Z,7.33
2018-09-26T04:15:56.834Z,7.33
2018-09-26T04:16:45.248Z,7.36
2018-09-26T04:17:44.454Z,7.39
2018-09-26T04:18:43.549Z,7.39
2018-09-26T04:19:43.690Z,7.39
2018-09-26T04:20:43.757Z,7.36
2018-09-26T04:21:44.048Z,7.39
2018-09-26T04:22:44.060Z,7.40
2018-09-26T04:23:44.241Z,7.45
2018-09-26T04:25:05.735Z,7.47
2018-09-26T04:26:06.012Z,7.47
2018-09-26T04:27:50.105Z,7.48
2018-09-26T04:28:49.493Z,7.47
2018-09-26T04:30:11.911Z,7.47
2018-09-26T04:31:12.647Z,7.43
2018-09-26T04:32:11.728Z,7.43
2018-09-26T04:33:12.077Z,7.43
2018-09-26T04:34:11.848Z,7.45
2018-09-26T04:35:32.695Z,7.47
2018-09-26T04:36:33.921Z,7.47
2018-09-26T04:37:33.127Z,7.48
2018-09-26T04:38:33.272Z,7.50
2018-09-26T04:39:33.254Z,7.48
2018-09-26T04:40:33.392Z,7.50
2018-09-26T04:41:33.685Z,7.48
2018-09-26T04:42:33.593Z,7.48
2018-09-26T04:43:33.609Z,7.50
2018-09-26T04:44:33.796Z,7.48
2018-09-26T04:45:54.021Z,7.48
2018-09-26T04:46:55.148Z,7.51
2018-09-26T04:47:54.144Z,7.56
2018-09-26T04:48:54.465Z,7.58
2018-09-26T04:49:54.254Z,7.60
2018-09-26T04:50:54.960Z,7.58
2018-09-26T04:51:54.128Z,7.60
2018-09-26T04:52:54.227Z,7.60
2018-09-26T04:54:15.072Z,7.63
2018-09-26T04:55:15.365Z,7.66
2018-09-26T04:56:15.639Z,7.66
2018-09-26T04:57:36.350Z,7.66
2018-09-26T04:58:37.187Z,7.63
2018-09-26T04:59:37.117Z,7.66
2018-09-26T05:00:37.206Z,7.69
2018-09-26T05:01:37.123Z,7.70
2018-09-26T05:02:37.417Z,7.72
2018-09-26T05:03:36.790Z,7.72
2018-09-26T05:04:36.912Z,7.73
2018-09-26T05:05:37.144Z,7.72
2018-09-26T05:06:37.345Z,7.69
2018-09-26T05:07:36.391Z,7.66
2018-09-26T05:08:36.728Z,7.63
2018-09-26T05:09:36.899Z,7.66
2018-09-26T05:10:37.068Z,7.67
2018-09-26T05:11:36.926Z,7.67
2018-09-26T05:12:37.167Z,7.69
2018-09-26T05:13:37.284Z,7.69
2018-09-26T05:14:36.453Z,7.72
2018-09-26T05:15:36.630Z,7.75
2018-09-26T05:17:39.980Z,7.77
2018-09-26T05:18:41.280Z,7.80
2018-09-26T05:19:40.121Z,7.82
2018-09-26T05:20:40.186Z,7.85
2018-09-26T05:21:40.334Z,7.87
2018-09-26T05:22:40.373Z,7.87
2018-09-26T05:23:40.946Z,7.85
2018-09-26T05:24:40.058Z,7.85
2018-09-26T05:25:40.071Z,7.83
2018-09-26T05:26:40.187Z,7.85
2018-09-26T05:27:40.213Z,7.87
2018-09-26T05:28:40.591Z,7.90
2018-09-26T05:29:39.955Z,7.93
2018-09-26T05:31:00.902Z,7.95
2018-09-26T05:32:02.111Z,8.00
2018-09-26T05:33:01.400Z,8.00
2018-09-26T05:34:01.651Z,8.00
2018-09-26T05:35:01.588Z,8.01
2018-09-26T05:36:01.736Z,8.05
2018-09-26T05:37:01.937Z,8.05
2018-09-26T05:38:01.257Z,8.08
2018-09-26T05:39:01.802Z,8.08
2018-09-26T05:40:02.027Z,8.08
2018-09-26T05:41:25.103Z,8.09
2018-09-26T05:42:25.211Z,8.10
2018-09-26T05:43:25.516Z,8.15
2018-09-26T05:44:46.834Z,8.19
2018-09-26T05:45:47.186Z,8.23
2018-09-26T05:46:47.801Z,8.26
2018-09-26T05:47:46.894Z,8.27
2018-09-26T05:48:47.187Z,8.30
2018-09-26T05:49:47.429Z,8.31
2018-09-26T05:50:47.914Z,8.33
2018-09-26T05:52:08.349Z,8.34
2018-09-26T05:53:08.717Z,8.37
2018-09-26T05:54:08.918Z,8.41
2018-09-26T05:55:08.248Z,8.42
2018-09-26T05:56:29.947Z,8.44
2018-09-26T05:57:30.186Z,8.48
2018-09-26T05:58:30.080Z,8.52
2018-09-26T05:59:29.717Z,8.56
2018-09-26T06:00:29.956Z,8.58
2018-09-26T06:01:30.270Z,8.60
2018-09-26T06:02:29.391Z,8.63
2018-09-26T06:03:29.758Z,8.63
2018-09-26T06:04:29.963Z,8.66
2018-09-26T06:05:30.178Z,8.67
2018-09-26T06:06:29.478Z,8.69
2018-09-26T06:07:29.779Z,8.73
2018-09-26T06:08:30.211Z,8.78
2018-09-26T06:09:29.217Z,8.79
2018-09-26T06:10:29.507Z,8.84
2018-09-26T06:11:29.645Z,8.87
2018-09-26T06:12:29.946Z,8.89
2018-09-26T06:13:30.207Z,8.89
2018-09-26T06:14:29.658Z,8.91
2018-09-26T06:15:30.087Z,8.92
2018-09-26T06:16:29.229Z,8.94
2018-09-26T06:17:29.407Z,8.99
2018-09-26T06:18:29.687Z,9.00
2018-09-26T06:19:30.045Z,9.02
2018-09-26T06:20:29.290Z,9.04
2018-09-26T06:21:29.669Z,9.08
2018-09-26T06:22:29.758Z,9.11
2018-09-26T06:23:29.805Z,9.14
2018-09-26T06:24:30.130Z,9.19
2018-09-26T06:25:30.367Z,9.22
2018-09-26T06:26:29.683Z,9.25
2018-09-26T06:27:30.136Z,9.29
2018-09-26T06:28:29.327Z,9.34
2018-09-26T06:29:29.468Z,9.37
2018-09-26T06:30:29.795Z,9.41
2018-09-26T06:31:51.250Z,9.48
2018-09-26T06:32:51.486Z,9.50
2018-09-26T06:33:52.250Z,9.55
2018-09-26T06:34:51.777Z,9.56
2018-09-26T06:35:52.058Z,9.64
2018-09-26T06:36:51.248Z,9.65
2018-09-26T06:37:51.447Z,9.69
2018-09-26T06:39:34.007Z,9.73
2018-09-26T06:40:35.704Z,9.80
2018-09-26T06:41:56.276Z,9.87
2018-09-26T06:42:57.527Z,9.94
2018-09-26T06:43:58.435Z,9.97
2018-09-26T06:45:01.797Z,10.04
2018-09-26T06:46:42.545Z,10.09
2018-09-26T06:47:40.570Z,10.13
2018-09-26T06:49:02.360Z,10.15
2018-09-26T06:50:02.547Z,10.17
2018-09-26T06:51:01.948Z,10.23
2018-09-26T06:52:01.377Z,10.26
2018-09-26T06:53:02.376Z,10.23
2018-09-26T06:54:02.184Z,10.28
2018-09-26T06:55:01.811Z,10.33
2018-09-26T06:56:20.913Z,10.35
2018-09-26T06:57:20.825Z,10.38
2018-09-26T06:58:20.334Z,10.40
2018-09-26T06:59:19.808Z,10.44
2018-09-26T07:00:20.466Z,10.54
2018-09-26T07:01:20.373Z,10.59
2018-09-26T07:03:02.549Z,10.64
2018-09-26T07:04:03.218Z,10.64
2018-09-26T07:05:02.954Z,10.69
2018-09-26T07:06:03.249Z,10.69
2018-09-26T07:07:24.016Z,10.72
2018-09-26T07:08:24.483Z,10.79
2018-09-26T07:09:47.838Z,10.89
2018-09-26T07:10:47.151Z,10.99
2018-09-26T07:11:49.292Z,10.97
2018-09-26T07:12:47.590Z,11.00
2018-09-26T07:13:47.603Z,11.00
2018-09-26T07:14:47.058Z,11.02
2018-09-26T07:15:47.343Z,11.07
2018-09-26T07:16:52.663Z,11.14
2018-09-26T07:17:47.166Z,11.15
2018-09-26T07:18:48.240Z,11.19
2018-09-26T07:20:19.738Z,11.18
2018-09-26T07:21:19.086Z,11.19
2018-09-26T07:22:19.328Z,11.23
2018-09-26T07:23:40.707Z,11.32
2018-09-26T07:24:20.598Z,11.43
2018-09-26T07:25:20.211Z,11.47
2018-09-26T07:26:20.230Z,11.47
2018-09-26T07:27:19.687Z,11.48
2018-09-26T07:28:20.101Z,11.50
2018-09-26T07:29:19.605Z,11.55
2018-09-26T07:30:20.110Z,11.60
2018-09-26T07:31:19.492Z,11.69
2018-09-26T07:32:19.883Z,11.72
2018-09-26T07:33:19.113Z,11.70
2018-09-26T07:34:50.065Z,11.78
2018-09-26T07:35:50.731Z,11.83
2018-09-26T07:36:50.033Z,11.91
2018-09-26T07:37:50.487Z,11.95
2018-09-26T07:38:50.791Z,12.07
2018-09-26T07:40:32.215Z,12.18
2018-09-26T07:41:32.700Z,12.13
2018-09-26T07:42:33.047Z,12.21
2018-09-26T07:43:32.480Z,12.29
2018-09-26T07:45:36.015Z,12.45
2018-09-26T07:46:57.779Z,12.55
2018-09-26T07:47:58.073Z,12.58
2018-09-26T07:49:20.452Z,12.57
2018-09-26T07:50:21.906Z,12.54
2018-09-26T07:51:21.201Z,12.55
2018-09-26T07:52:20.651Z,12.61
2018-09-26T07:53:21.121Z,12.73
2018-09-26T07:54:21.222Z,12.82
2018-09-26T07:55:42.139Z,12.95
2018-09-26T07:56:42.603Z,13.05
2018-09-26T07:58:03.638Z,13.11
2018-09-26T07:59:03.950Z,13.00
2018-09-26T08:00:04.575Z,12.98
2018-09-26T08:01:04.168Z,13.03
2018-09-26T08:02:04.178Z,13.13
2018-09-26T08:03:03.580Z,13.23
2018-09-26T08:04:03.980Z,13.18
2018-09-26T08:05:04.232Z,13.18
2018-09-26T08:06:03.459Z,13.20
2018-09-26T08:07:03.772Z,13.27
2018-09-26T08:08:04.378Z,13.31
2018-09-26T08:09:04.350Z,13.39
2018-09-26T08:10:03.541Z,13.54
2018-09-26T08:11:03.835Z,13.59
2018-09-26T08:12:04.219Z,13.65
2018-09-26T08:13:03.458Z,13.77
2018-09-26T08:14:03.678Z,13.87
2018-09-26T08:15:04.111Z,13.95
2018-09-26T08:16:03.279Z,13.92
2018-09-26T08:17:03.605Z,13.90
2018-09-26T08:18:25.234Z,13.87
2018-09-26T08:19:25.641Z,13.97
2018-09-26T08:20:25.999Z,13.95
2018-09-26T08:21:46.614Z,14.04
2018-09-26T08:22:47.227Z,14.14
2018-09-26T08:23:46.742Z,14.22
2018-09-26T08:24:47.043Z,14.18
2018-09-26T08:25:47.420Z,14.26
2018-09-26T08:27:07.804Z,14.28
2018-09-26T08:28:08.125Z,14.22
2018-09-26T08:29:08.577Z,14.10
2018-09-26T08:30:29.128Z,13.93
2018-09-26T08:31:50.495Z,13.83
2018-09-26T08:32:50.833Z,13.74
2018-09-26T08:33:51.175Z,13.75
2018-09-26T08:34:50.684Z,13.78
2018-09-26T08:35:50.972Z,13.70
2018-09-26T08:36:51.163Z,13.63
2018-09-26T08:37:50.536Z,13.62
2018-09-26T08:38:50.846Z,13.59
2018-09-26T08:39:51.367Z,13.67
2018-09-26T08:40:50.691Z,13.68
2018-09-26T08:41:50.990Z,13.74
2018-09-26T08:42:50.469Z,13.72
2018-09-26T08:43:50.869Z,13.85
2018-09-26T08:44:52.420Z,13.87
2018-09-26T08:45:50.811Z,13.95
2018-09-26T08:46:51.219Z,14.05
2018-09-26T08:47:50.630Z,14.11
2018-09-26T08:48:51.185Z,14.12
2018-09-26T08:49:50.849Z,14.18
2018-09-26T08:50:51.152Z,14.18
2018-09-26T08:51:50.290Z,14.26
2018-09-26T08:52:50.625Z,14.43
2018-09-26T08:53:51.247Z,14.55
2018-09-26T08:54:51.553Z,14.63
2018-09-26T08:55:50.991Z,14.66
2018-09-26T08:56:51.111Z,14.78
2018-09-26T08:57:50.615Z,14.92
2018-09-26T08:58:50.971Z,14.96
2018-09-26T08:59:51.523Z,14.91
2018-09-26T09:00:52.626Z,14.99
2018-09-26T09:01:50.980Z,15.21
2018-09-26T09:02:51.202Z,15.31
2018-09-26T09:03:50.588Z,15.37
2018-09-26T09:04:51.071Z,15.54
2018-09-26T09:05:50.338Z,15.76
2018-09-26T09:06:50.948Z,15.92
2018-09-26T09:08:11.477Z,16.17
2018-09-26T09:09:11.897Z,16.28
2018-09-26T09:10:12.199Z,16.29
2018-09-26T09:11:11.605Z,16.43
2018-09-26T09:12:12.295Z,16.64
2018-09-26T09:13:11.497Z,16.79
2018-09-26T09:14:11.737Z,16.83
2018-09-26T09:15:12.260Z,17.06
2018-09-26T09:16:32.930Z,17.30
2018-09-26T09:17:54.301Z,17.36
2018-09-26T09:19:15.856Z,17.38
2018-09-26T09:20:16.289Z,17.45
2018-09-26T09:21:16.546Z,17.46
2018-09-26T09:22:15.907Z,17.30
2018-09-26T09:23:16.390Z,17.16
2018-09-26T09:24:16.722Z,17.04
2018-09-26T09:25:16.000Z,17.01
2018-09-26T09:26:16.296Z,16.96
2018-09-26T09:27:37.912Z,17.09
2018-09-26T09:29:20.427Z,16.93
2018-09-26T09:30:42.138Z,16.96
2018-09-26T09:31:42.485Z,16.99
2018-09-26T09:32:42.736Z,16.99
2018-09-26T09:33:42.430Z,16.93
2018-09-26T09:34:42.579Z,16.79
2018-09-26T09:36:03.188Z,16.83
2018-09-26T09:37:03.476Z,16.89
2018-09-26T09:38:04.031Z,16.94
2018-09-26T09:39:03.678Z,16.89
2018-09-26T09:40:03.927Z,16.86
2018-09-26T09:41:03.350Z,16.89
2018-09-26T09:42:04.189Z,16.99
2018-09-26T09:43:03.701Z,17.12
2018-09-26T09:44:04.132Z,17.23
2018-09-26T09:45:03.357Z,17.24
2018-09-26T09:46:24.932Z,17.42
2018-09-26T09:47:25.474Z,17.59
2018-09-26T09:48:25.722Z,17.60
2018-09-26T09:49:24.891Z,17.70
2018-09-26T09:50:25.442Z,17.86
2018-09-26T09:51:25.889Z,17.87
2018-09-26T09:52:25.190Z,17.98
2018-09-26T09:53:25.951Z,18.01
2018-09-26T09:54:25.364Z,18.05
2018-09-26T09:55:26.787Z,18.28
2018-09-26T09:56:25.154Z,18.45
2018-09-26T09:57:25.802Z,18.45
2018-09-26T09:58:25.072Z,18.38
2018-09-26T09:59:26.194Z,18.52
2018-09-26T10:00:26.684Z,18.66
2018-09-26T10:01:25.232Z,18.70
2018-09-26T10:02:46.752Z,18.88
2018-09-26T10:04:08.630Z,18.90
2018-09-26T10:05:08.897Z,18.86
2018-09-26T10:06:09.114Z,18.84
2018-09-26T10:07:09.516Z,18.68
2018-09-26T10:08:09.135Z,18.62
2018-09-26T10:09:09.355Z,18.83
2018-09-26T10:10:08.744Z,18.93
2018-09-26T10:11:09.128Z,19.21
2018-09-26T10:12:09.721Z,19.34
2018-09-26T10:13:08.849Z,19.30
2018-09-26T10:14:09.378Z,19.39
2018-09-26T10:15:08.950Z,19.39
2018-09-26T10:16:30.602Z,19.52
2018-09-26T10:17:31.256Z,19.82
2018-09-26T10:18:30.631Z,19.92
2018-09-26T10:19:31.144Z,20.13
2018-09-26T10:20:53.227Z,20.11
2018-09-26T10:21:53.870Z,20.32
2018-09-26T10:22:53.423Z,20.48
2018-09-26T10:23:53.814Z,20.58
2018-09-26T10:24:54.244Z,20.32
2018-09-26T10:25:53.651Z,20.31
2018-09-26T10:26:54.101Z,20.22
2018-09-26T10:27:53.858Z,20.24
2018-09-26T10:28:54.383Z,20.58
2018-09-26T10:29:53.885Z,20.60
2018-09-26T10:30:54.444Z,20.90
2018-09-26T10:31:53.838Z,21.14
2018-09-26T10:32:53.771Z,21.30
2018-09-26T10:33:53.983Z,21.57
2018-09-26T10:34:53.475Z,21.54
2018-09-26T10:35:54.069Z,21.46
2018-09-26T10:36:53.781Z,21.60
2018-09-26T10:37:54.086Z,21.76
2018-09-26T10:38:53.637Z,21.96
2018-09-26T10:39:54.147Z,22.04
2018-09-26T10:40:53.687Z,22.17
2018-09-26T10:41:54.116Z,22.44
2018-09-26T10:42:53.570Z,22.48
2018-09-26T10:44:58.280Z,22.13
2018-09-26T10:45:58.630Z,21.99
2018-09-26T10:46:58.833Z,22.13
2018-09-26T10:47:58.245Z,22.26
2018-09-26T10:49:41.029Z,22.47
2018-09-26T10:50:41.706Z,21.92
2018-09-26T10:51:41.103Z,21.82
2018-09-26T10:53:02.625Z,21.66
2018-09-26T10:54:02.985Z,21.93
2018-09-26T10:55:03.428Z,22.33
2018-09-26T10:56:02.666Z,22.69
2018-09-26T10:57:03.204Z,22.90
2018-09-26T10:58:02.656Z,22.87
2018-09-26T10:59:03.665Z,22.91
2018-09-26T11:00:03.296Z,22.84
2018-09-26T11:01:23.926Z,22.80
2018-09-26T11:02:45.844Z,22.73
2018-09-26T11:03:46.366Z,22.55
2018-09-26T11:05:29.976Z,22.73
2018-09-26T11:06:30.373Z,23.13
2018-09-26T11:07:29.532Z,23.32
2018-09-26T11:08:30.568Z,23.46
2018-09-26T11:09:30.098Z,23.77
2018-09-26T11:10:29.628Z,23.92
2018-09-26T11:11:29.800Z,23.80
2018-09-26T11:12:30.213Z,23.73
2018-09-26T11:13:51.368Z,23.91
2018-09-26T11:14:50.580Z,24.14
2018-09-26T11:15:50.766Z,24.29
2018-09-26T11:16:51.292Z,24.32
2018-09-26T11:17:51.527Z,24.45
2018-09-26T11:18:51.001Z,24.53
2018-09-26T11:19:51.341Z,24.53
2018-09-26T11:20:50.800Z,24.42
2018-09-26T11:22:12.205Z,24.05
2018-09-26T11:23:12.694Z,23.88
2018-09-26T11:25:16.829Z,23.28
2018-09-26T11:26:17.371Z,23.00
2018-09-26T11:27:16.962Z,23.18
2018-09-26T11:28:17.637Z,23.47
2018-09-26T11:29:38.481Z,23.92
2018-09-26T11:30:38.864Z,24.20
2018-09-26T11:31:39.200Z,24.33
2018-09-26T11:32:38.599Z,24.57
2018-09-26T11:33:39.319Z,24.80
2018-09-26T11:34:38.944Z,24.70
2018-09-26T11:35:39.586Z,24.55
2018-09-26T11:36:39.527Z,24.39
2018-09-26T11:37:38.897Z,24.02
2018-09-26T11:38:39.909Z,23.69
2018-09-26T11:39:39.046Z,23.68
2018-09-26T11:40:38.471Z,23.44
2018-09-26T11:41:39.241Z,23.02
2018-09-26T11:42:38.693Z,23.08
2018-09-26T11:43:39.275Z,23.39
2018-09-26T11:44:38.794Z,23.63
2018-09-26T11:45:40.045Z,23.92
2018-09-26T11:46:38.383Z,24.23
2018-09-26T11:47:38.849Z,24.29
2018-09-26T11:48:39.389Z,24.50
2018-09-26T11:49:38.710Z,24.36
2018-09-26T11:50:38.911Z,24.35
2018-09-26T11:51:39.381Z,24.26
2018-09-26T11:52:38.763Z,24.32
2018-09-26T11:53:39.409Z,24.39
2018-09-26T11:54:38.818Z,24.69
2018-09-26T11:56:02.416Z,24.55
2018-09-26T11:57:02.882Z,24.78
2018-09-26T11:58:02.905Z,24.70
2018-09-26T11:59:02.625Z,24.86
2018-09-26T12:00:03.677Z,24.91
2018-09-26T12:01:03.124Z,24.78
2018-09-26T12:02:02.493Z,24.61
2018-09-26T12:03:02.783Z,24.77
2018-09-26T12:04:02.980Z,24.76
2018-09-26T12:05:02.360Z,24.88
2018-09-26T12:06:02.688Z,24.69
2018-09-26T12:07:03.407Z,24.81
2018-09-26T12:08:03.002Z,24.89
2018-09-26T12:09:02.333Z,24.78
2018-09-26T12:10:24.278Z,24.69
2018-09-26T12:11:24.768Z,24.81
2018-09-26T12:12:24.507Z,25.14
2018-09-26T12:13:24.101Z,25.40
2018-09-26T12:14:25.435Z,25.53
2018-09-26T12:15:46.021Z,25.14
2018-09-26T12:16:46.434Z,24.93
2018-09-26T12:17:46.637Z,25.03
2018-09-26T12:18:47.212Z,24.76
2018-09-26T12:19:47.775Z,24.92
2018-09-26T12:20:46.439Z,25.23
2018-09-26T12:21:46.728Z,25.55
2018-09-26T12:22:46.239Z,25.70
2018-09-26T12:23:46.778Z,25.66
2018-09-26T12:24:46.836Z,25.33
2018-09-26T12:26:08.813Z,25.21
2018-09-26T12:27:28.977Z,25.46
2018-09-26T12:28:29.202Z,25.51
2018-09-26T12:29:29.837Z,25.44
2018-09-26T12:30:29.219Z,25.36
2018-09-26T12:31:29.754Z,25.32
2018-09-26T12:32:29.181Z,25.35
2018-09-26T12:33:29.843Z,25.16
2018-09-26T12:34:29.502Z,25.01
2018-09-26T12:35:29.901Z,24.86
2018-09-26T12:36:29.492Z,24.60
2018-09-26T12:37:30.154Z,24.60
2018-09-26T12:38:29.531Z,24.55
2018-09-26T12:39:30.100Z,24.23
2018-09-26T12:40:29.525Z,23.93
2018-09-26T12:41:30.407Z,23.93
2018-09-26T12:42:29.787Z,23.92
2018-09-26T12:43:50.782Z,23.92
2018-09-26T12:44:51.110Z,23.80
2018-09-26T12:45:50.395Z,23.96
2018-09-26T12:46:51.183Z,23.88
2018-09-26T12:47:50.768Z,23.61
2018-09-26T12:48:51.124Z,23.63
2018-09-26T12:49:51.336Z,23.63
2018-09-26T12:51:11.943Z,23.76
2018-09-26T12:52:34.180Z,24.21
2018-09-26T12:53:35.047Z,24.55
2018-09-26T12:54:56.904Z,24.78
2018-09-26T12:56:20.330Z,25.03
2018-09-26T12:57:18.548Z,24.93
2018-09-26T12:58:18.569Z,24.81
2018-09-26T12:59:18.913Z,24.84
2018-09-26T13:00:18.339Z,24.76
2018-09-26T13:01:19.837Z,24.70
2018-09-26T13:02:19.385Z,24.47
2018-09-26T13:03:19.381Z,24.35
2018-09-26T13:04:18.968Z,24.28
2018-09-26T13:05:39.885Z,24.17
2018-09-26T13:07:01.267Z,23.91
2018-09-26T13:08:01.701Z,23.74
2018-09-26T13:09:23.369Z,23.34
2018-09-26T13:10:24.414Z,23.12
2018-09-26T13:11:23.925Z,23.17
2018-09-26T13:12:44.416Z,23.25
2018-09-26T13:13:45.052Z,23.31
2018-09-26T13:14:45.508Z,23.34
2018-09-26T13:15:44.988Z,23.31
2018-09-26T13:16:44.927Z,23.24
2018-09-26T13:17:45.506Z,23.40
2018-09-26T13:19:29.201Z,23.36
2018-09-26T13:20:30.336Z,23.48
2018-09-26T13:21:49.992Z,23.69
2018-09-26T13:22:50.340Z,23.61
2018-09-26T13:23:51.967Z,23.61
2018-09-26T13:24:50.381Z,23.59
2018-09-26T13:26:11.040Z,23.51
2018-09-26T13:27:11.529Z,23.36
2018-09-26T13:28:11.024Z,23.32
2018-09-26T13:29:11.577Z,23.37
2018-09-26T13:30:12.497Z,23.25
2018-09-26T13:31:11.947Z,23.18
2018-09-26T13:32:12.495Z,23.21
2018-09-26T13:33:11.168Z,23.10
2018-09-26T13:34:12.292Z,22.83
2018-09-26T13:35:32.791Z,22.81
2018-09-26T13:36:33.121Z,22.88
2018-09-26T13:37:33.444Z,22.96
2018-09-26T13:38:32.976Z,22.98
2018-09-26T13:39:55.199Z,22.84
2018-09-26T13:40:56.005Z,22.73
2018-09-26T13:41:56.587Z,22.73
2018-09-26T13:42:55.336Z,22.99
2018-09-26T13:43:56.450Z,23.06
2018-09-26T13:44:57.213Z,23.03
2018-09-26T13:46:16.912Z,23.00
2018-09-26T13:47:17.257Z,23.03
2018-09-26T13:48:17.696Z,23.18
2018-09-26T13:49:16.878Z,23.06
2018-09-26T13:50:17.377Z,22.94
2018-09-26T13:51:38.633Z,22.84
2018-09-26T13:52:39.188Z,22.80
2018-09-26T13:53:39.510Z,22.66